Terminal Aerodrome Forecast
Issued by NWS Pittsburgh, PA

Current Version | Previous Version | Text Only | Print | Product List | Glossary Off
Versions: 1 2 3 4 5 6 7 8 9 10 11 12 13 14 15 16 17 18 19 20 21 22 23 24 25 26 27 28 29 30 31 32

864
FTUS41 KPBZ 212057 AAB
TAFPIT
TAF AMD
KPIT 212057Z 2121/2224 05007KT P6SM -SHRA BKN006
     FM220100 35006KT 2SM BR OVC003
     FM221500 33005KT P6SM SCT025 BKN100
     FM221800 35007KT P6SM -SHRA BKN050=

USA.gov is the U.S. government's official web portal to all federal, state and local government web resources and services.